Албазино

Карта отелей и гостиниц, располагающихся рядом с аэропортом Албазино :

Албазино Хабаровский край 52° 52' 49.3788" N, 137° 54' 28.7388" E
Албазино Хабаровский край 52° 52' 49.3788" N, 137° 54' 28.7388" E
Код аэродрома ИКАО: 
HE0A
Код аэродрома RU: 
ХЕ0А
Координаты: 
N52.88038° E137.90798°
Превышение над уровнем моря : 
257
Основная полоса: 
Курс магнитный: 
Длина основной ВПП: 
Ширина основной ВПП: 
Покрытие основной ВПП: 
Освещение ВПП: 
Тип: 
Вертодром
Класс аэродрома: 
Принадлежность: 
ГА
Статус: 
Действующий
Сайт: 
E-mail аэродрома: 
Страна: 
Россия
Регион: 
Хабаровский край
Город: 
Дополнительная информация: 
Горный.

Найти трансфер

С помощью этой формы Вы можете найти трансфер из аэропорта Албазино в город, аэропорт или вокзал:

Карта места

Javascript is required to view this map.

Погода в аэропортах:

Авиационная погода в аэропорту Алыкель

Регион: 
Погода METAR: 
UOOO 241400Z 12002MPS 9999 -RA BKN033 06/05 Q1010 R01/29//50 NOSIG RMK QFE742/0990
Время наблюдения: 
2020-09-24T14:00:00Z
Температура C: 
6.0
Точка росы: 
5.0
Направление ветра: 
120
Скорость ветра (узлы): 
4
Метеорологическая видимость: 
6.21
Явления погоды: 
-RA
Условия полета: 
VFR
Аэропорт подробнее: 

Авиационная погода в аэропорту Центральный

Регион: 
Погода METAR: 
UNOO 241400Z 34008G14MPS 9999 -SHRA BKN013 BKN033CB 07/05 Q1008 R25/290050 NOSIG RMK QFE748
Время наблюдения: 
2020-09-24T14:00:00Z
Температура C: 
7.0
Точка росы: 
5.0
Направление ветра: 
340
Скорость ветра (узлы): 
16
Метеорологическая видимость: 
6.21
Явления погоды: 
-SHRA
Условия полета: 
MVFR
Аэропорт подробнее: 

Авиационная погода в Игнатьево

Регион: 
Погода METAR: 
UHBB 241400Z 26001MPS 7000 0550N PRFG NSC 09/09 Q1018 R36/290250 TEMPO 0700 FG RMK QFE746/0994
Время наблюдения: 
2020-09-24T14:00:00Z
Температура C: 
9.0
Точка росы: 
9.0
Направление ветра: 
260
Скорость ветра (узлы): 
2
Метеорологическая видимость: 
4.35
Явления погоды: 
PRFG
Условия полета: 
MVFR
Аэропорт подробнее: 

Авиационная погода в Якутске

Регион: 
Погода METAR: 
UEEE 241400Z 05002MPS 1500 R23L/P2000N FU NSC 04/M01 Q1026 R23L/09//60 NOSIG RMK QFE761
Время наблюдения: 
2020-09-24T14:00:00Z
Температура C: 
4.0
Точка росы: 
-1.0
Направление ветра: 
50
Скорость ветра (узлы): 
4
Метеорологическая видимость: 
0.93
Явления погоды: 
FU
Условия полета: 
LIFR
Аэропорт подробнее: